Time;durP1;ratioP1;P1;durP2;ratioP2;P2;SDS_P1;SDS_P2;PMS_P1;PMS_P2;Temp;Humidity;BMP_temperature;BMP_pressure;BME280_temperature;BME280_humidity;BME280_pressure;Samples;Min_cycle;Max_cycle;Signal;HPM_P1;HPM_P2
2021/09/03 00:00:57;;;;;;;;;;;12.40;99.90;;;11.18;100.00;96213.72;10394267;28;1918;-78
2021/09/03 00:06:20;;;;;;;;;;;12.30;99.90;;;11.06;100.00;96207.78;10393150;28;1916;-75
2021/09/03 00:11:23;;;;;;;;;;;12.30;99.90;;;11.02;100.00;96204.03;10395950;28;2570;-79
2021/09/03 00:16:26;;;;;;;;;;;12.30;99.90;;;10.98;100.00;96200.22;10394138;28;2103;-79
2021/09/03 00:21:29;;;;;;;;;;;12.20;99.90;;;11.05;100.00;96193.53;10396292;28;2143;-79
2021/09/03 00:26:32;;;;;;;;;;;12.20;99.90;;;10.97;100.00;96198.63;10408502;28;2136;-80
2021/09/03 00:31:34;;;;;;;;;;;12.10;99.90;;;10.92;100.00;96191.34;10403377;28;2216;-79
2021/09/03 00:36:37;;;;;;;;;;;12.10;99.90;;;10.81;100.00;96195.06;10390733;28;2255;-77
2021/09/03 00:41:40;;;;;;;;;;;12.00;99.90;;;10.89;100.00;96193.78;10402541;28;2119;-78
2021/09/03 00:46:43;;;;;;;;;;;12.00;99.90;;;10.86;100.00;96196.97;10406866;28;2057;-79
2021/09/03 00:51:46;;;;;;;;;;;12.00;99.90;;;10.75;100.00;96196.13;10406474;28;2609;-79
2021/09/03 00:56:49;;;;;;;;;;;12.00;99.90;;;10.76;100.00;96187.81;10399918;28;2238;-79
2021/09/03 01:01:52;;;;;;;;;;;11.90;99.90;;;10.68;100.00;96180.25;10404502;28;2099;-78
2021/09/03 01:06:55;;;;;;;;;;;11.90;99.90;;;10.76;100.00;96182.44;10414848;28;2197;-79
2021/09/03 01:11:58;;;;;;;;;;;11.90;99.90;;;10.67;100.00;96167.88;10404241;28;2255;-77
2021/09/03 01:17:02;;;;;;;;;;;11.90;99.90;;;10.71;100.00;96174.34;10407795;28;2077;-78
2021/09/03 01:22:05;;;;;;;;;;;11.90;99.90;;;10.65;100.00;96171.91;10400060;28;2277;-77
2021/09/03 01:27:09;;;;;;;;;;;11.80;99.90;;;10.62;100.00;96175.91;10398758;28;2086;-79
2021/09/03 01:32:11;;;;;;;;;;;11.80;99.90;;;10.59;100.00;96170.28;10398691;28;1980;-76
2021/09/03 01:37:14;;;;;;;;;;;11.70;99.90;;;10.47;100.00;96178.56;10398357;28;2229;-77
2021/09/03 01:42:17;;;;;;;;;;;11.70;99.90;;;10.39;100.00;96174.50;10400296;28;2188;-76
2021/09/03 01:47:20;;;;;;;;;;;11.60;99.90;;;10.25;100.00;96174.19;10403386;28;2186;-79
2021/09/03 01:52:23;;;;;;;;;;;11.50;99.90;;;10.38;100.00;96174.78;10424900;28;2226;-79
2021/09/03 01:57:26;;;;;;;;;;;11.50;99.90;;;10.37;100.00;96173.97;10414290;28;2050;-79
2021/09/03 02:02:29;;;;;;;;;;;11.50;99.90;;;10.36;100.00;96166.13;10405583;28;2202;-79
2021/09/03 02:07:32;;;;;;;;;;;11.50;99.90;;;10.28;100.00;96175.53;10389135;28;2167;-79
2021/09/03 02:12:35;;;;;;;;;;;11.50;99.90;;;10.37;100.00;96173.13;10411540;28;1888;-79
2021/09/03 02:17:38;;;;;;;;;;;11.50;99.90;;;10.33;100.00;96164.00;10400411;28;2119;-79
2021/09/03 02:22:41;;;;;;;;;;;11.50;99.90;;;10.21;100.00;96159.59;10407134;28;2041;-79
2021/09/03 02:27:43;;;;;;;;;;;11.40;99.90;;;10.18;100.00;96157.47;10406402;28;2162;-79
2021/09/03 02:32:46;;;;;;;;;;;11.40;99.90;;;10.17;100.00;96158.50;10398677;28;2131;-78
2021/09/03 02:37:49;;;;;;;;;;;11.40;99.90;;;9.99;100.00;96161.66;10423333;28;2000;-79
2021/09/03 02:42:52;;;;;;;;;;;11.30;99.90;;;10.13;100.00;96162.00;10402344;28;2143;-80
2021/09/03 02:47:55;;;;;;;;;;;11.30;99.90;;;10.13;100.00;96152.06;10406911;28;2242;-77
2021/09/03 02:52:58;;;;;;;;;;;11.20;99.90;;;10.13;100.00;96141.31;10399861;28;2213;-79
2021/09/03 02:58:01;;;;;;;;;;;11.30;99.90;;;10.04;100.00;96137.47;10396750;28;2130;-79
2021/09/03 03:03:04;;;;;;;;;;;11.30;99.90;;;10.11;100.00;96143.44;10400327;28;2000;-79
2021/09/03 03:08:07;;;;;;;;;;;11.20;99.90;;;10.03;100.00;96135.88;10396815;28;2207;-78
2021/09/03 03:13:20;;;;;;;;;;;11.30;99.90;;;9.99;100.00;96140.16;10394995;28;2201;-78
2021/09/03 03:18:23;;;;;;;;;;;11.20;99.90;;;9.93;100.00;96130.47;10404032;28;2075;-78
2021/09/03 03:23:26;;;;;;;;;;;11.10;99.90;;;9.89;100.00;96137.41;10400401;28;2201;-79
2021/09/03 03:28:29;;;;;;;;;;;11.10;99.90;;;9.95;100.00;96133.69;10397098;28;2244;-76
2021/09/03 03:33:32;;;;;;;;;;;11.10;99.90;;;9.90;100.00;96123.72;10396808;28;2140;-78
2021/09/03 03:38:35;;;;;;;;;;;11.00;99.90;;;9.86;100.00;96116.44;10399484;28;2144;-79
2021/09/03 03:43:38;;;;;;;;;;;11.00;99.90;;;9.79;100.00;96122.03;10409327;28;2099;-78
2021/09/03 03:48:41;;;;;;;;;;;10.90;99.90;;;9.82;100.00;96108.13;10407662;28;2178;-78
2021/09/03 03:53:44;;;;;;;;;;;10.90;99.90;;;9.68;100.00;96110.44;10397046;28;2123;-78
2021/09/03 03:58:46;;;;;;;;;;;10.90;99.90;;;9.72;100.00;96130.31;10392621;28;2088;-77
2021/09/03 04:03:49;;;;;;;;;;;10.90;99.90;;;9.67;100.00;96133.00;10399080;28;2065;-78
2021/09/03 04:08:52;;;;;;;;;;;10.90;99.90;;;9.66;100.00;96122.50;10407430;28;2055;-79
2021/09/03 04:13:55;;;;;;;;;;;10.90;99.90;;;9.65;100.00;96124.38;10386097;28;2083;-79
2021/09/03 04:18:58;;;;;;;;;;;10.80;99.90;;;9.67;100.00;96122.25;10389174;28;2147;-78
2021/09/03 04:24:01;;;;;;;;;;;10.90;99.90;;;9.65;100.00;96126.25;10395521;28;2126;-78
2021/09/03 04:29:03;;;;;;;;;;;10.80;99.90;;;9.67;100.00;96116.91;10402471;28;2096;-78
2021/09/03 04:34:06;;;;;;;;;;;10.80;99.90;;;9.74;100.00;96122.84;10421053;28;2178;-78
2021/09/03 04:39:09;;;;;;;;;;;10.80;99.90;;;9.69;100.00;96117.44;10423980;28;2139;-78
2021/09/03 04:44:12;;;;;;;;;;;10.80;99.90;;;9.61;100.00;96134.03;10400453;28;2115;-78
2021/09/03 04:49:15;;;;;;;;;;;10.80;99.90;;;9.65;100.00;96124.38;10402189;28;2107;-79
2021/09/03 04:54:18;;;;;;;;;;;10.80;99.90;;;9.86;100.00;96124.50;10402413;28;2222;-79
2021/09/03 04:59:21;;;;;;;;;;;10.90;99.90;;;10.11;100.00;96121.94;10402225;28;2162;-78
2021/09/03 05:04:24;;;;;;;;;;;11.00;99.90;;;10.29;100.00;96118.03;10397855;28;2115;-79
2021/09/03 05:09:27;;;;;;;;;;;11.20;99.90;;;10.48;100.00;96131.78;10384029;28;2162;-77
2021/09/03 05:14:30;;;;;;;;;;;11.40;99.90;;;10.63;100.00;96123.78;10391463;28;2003;-76
2021/09/03 05:19:32;;;;;;;;;;;11.60;99.90;;;10.81;100.00;96125.97;10393069;28;2130;-78
2021/09/03 05:24:35;;;;;;;;;;;11.70;99.90;;;11.09;100.00;96123.84;10393097;28;2069;-78
2021/09/03 05:29:38;;;;;;;;;;;11.90;99.90;;;11.49;100.00;96116.84;10392683;28;2198;-78
2021/09/03 05:34:41;;;;;;;;;;;12.20;99.90;;;11.68;100.00;96114.41;10391288;28;1912;-79
2021/09/03 05:39:44;;;;;;;;;;;12.30;99.90;;;12.03;100.00;96124.34;10406885;28;2052;-79
2021/09/03 05:44:47;;;;;;;;;;;12.60;99.90;;;11.84;100.00;96122.22;10409897;28;1478;-82
2021/09/03 05:49:50;;;;;;;;;;;12.80;99.90;;;12.22;100.00;96128.06;10419815;28;2024;-83
2021/09/03 05:54:53;;;;;;;;;;;12.90;99.90;;;12.15;100.00;96117.56;10432995;28;2054;-83
2021/09/03 05:59:56;;;;;;;;;;;13.00;99.90;;;12.22;100.00;96125.34;10433661;28;2210;-82
2021/09/03 06:04:59;;;;;;;;;;;13.00;99.90;;;12.32;100.00;96117.22;10428016;28;2082;-80
2021/09/03 06:10:02;;;;;;;;;;;13.10;99.90;;;12.48;99.76;96119.88;10397835;28;2178;-80
2021/09/03 06:15:05;;;;;;;;;;;13.30;99.90;;;12.66;99.23;96127.28;10406308;28;2061;-79
2021/09/03 06:20:10;;;;;;;;;;;13.50;99.90;;;12.90;97.88;96122.84;10402942;28;2214;-81
2021/09/03 06:25:14;;;;;;;;;;;13.70;99.90;;;13.20;96.15;96116.47;10404909;28;2198;-81
2021/09/03 06:30:17;;;;;;;;;;;13.90;99.90;;;13.45;94.18;96118.16;10401751;28;2080;-84
2021/09/03 06:35:20;;;;;;;;;;;14.20;99.90;;;13.42;94.27;96115.22;10402452;28;2142;-80
2021/09/03 06:40:23;;;;;;;;;;;14.30;99.90;;;13.71;92.93;96120.63;10401055;28;2138;-80
2021/09/03 06:45:26;;;;;;;;;;;14.40;99.90;;;14.12;90.46;96115.59;10401504;28;2136;-83
2021/09/03 06:50:29;;;;;;;;;;;14.70;99.90;;;14.17;89.15;96114.75;10404539;28;2108;-83
2021/09/03 06:55:32;;;;;;;;;;;15.00;99.90;;;14.24;89.33;96128.72;10425461;28;1873;-83
2021/09/03 07:00:35;;;;;;;;;;;15.00;99.90;;;14.38;88.50;96118.84;10407223;28;2181;-83
2021/09/03 07:05:39;;;;;;;;;;;15.10;99.90;;;14.65;85.50;96117.44;10411088;28;2088;-82
2021/09/03 07:10:41;;;;;;;;;;;15.30;99.90;;;14.24;88.69;96117.91;10410138;28;2163;-84
2021/09/03 07:15:44;;;;;;;;;;;15.30;99.90;;;14.58;86.31;96118.59;10433369;28;2068;-83
2021/09/03 07:20:47;;;;;;;;;;;15.40;99.90;;;14.68;85.88;96122.25;10429975;28;1989;-81
2021/09/03 07:25:52;;;;;;;;;;;15.50;99.90;;;15.07;84.60;96120.06;10434485;28;2135;-81
2021/09/03 07:30:55;;;;;;;;;;;15.60;99.90;;;15.12;84.12;96117.31;10451203;28;2254;-83
2021/09/03 07:35:58;;;;;;;;;;;15.90;99.90;;;15.33;82.21;96114.28;10434758;28;1848;-85
2021/09/03 07:41:01;;;;;;;;;;;16.00;99.90;;;15.66;81.36;96115.13;10442147;28;2114;-81
2021/09/03 07:46:06;;;;;;;;;;;16.20;99.90;;;15.58;80.61;96107.63;10419453;28;1982;-85
2021/09/03 07:51:10;;;;;;;;;;;16.50;99.90;;;15.94;78.45;96103.22;10424027;28;2555;-81
2021/09/03 07:56:13;;;;;;;;;;;16.70;99.90;;;15.51;81.08;96102.59;10422591;28;2084;-82
2021/09/03 08:01:16;;;;;;;;;;;16.60;99.90;;;15.90;78.53;96104.13;10417558;28;2056;-84
2021/09/03 08:06:20;;;;;;;;;;;16.70;99.90;;;16.11;78.58;96110.78;10431449;28;2061;-83
2021/09/03 08:11:23;;;;;;;;;;;16.90;99.90;;;16.24;79.33;96108.38;10422710;28;2069;-82
2021/09/03 08:16:27;;;;;;;;;;;17.10;99.90;;;16.41;79.04;96108.56;10404127;28;1955;-82
2021/09/03 08:21:30;;;;;;;;;;;17.10;99.90;;;16.50;78.25;96106.75;10408744;28;1955;-81
2021/09/03 08:26:35;;;;;;;;;;;17.30;99.90;;;17.03;74.76;96109.69;10404364;28;2084;-85
2021/09/03 08:37:01;;;;;;;;;;;17.80;99.90;;;17.63;72.05;96105.84;10403770;28;2061;-81
2021/09/03 08:42:04;;;;;;;;;;;18.20;99.90;;;17.09;73.63;96113.09;10407497;28;2050;-83
2021/09/03 08:47:07;;;;;;;;;;;18.30;99.90;;;17.52;73.19;96115.34;10408967;28;2140;-81
2021/09/03 08:52:10;;;;;;;;;;;18.20;99.90;;;17.46;74.18;96122.03;10402617;28;2073;-80
2021/09/03 08:57:14;;;;;;;;;;;18.10;99.90;;;17.52;72.00;96105.28;10405790;28;2113;-81
2021/09/03 09:02:17;;;;;;;;;;;18.40;99.90;;;17.98;71.83;96116.94;10404493;28;2323;-81
2021/09/03 09:07:20;;;;;;;;;;;18.50;99.90;;;18.20;70.48;96114.19;10429149;28;1892;-83
2021/09/03 09:12:24;;;;;;;;;;;18.80;99.90;;;18.27;68.94;96106.34;10442992;28;2088;-82
2021/09/03 09:17:27;;;;;;;;;;;19.00;99.90;;;17.97;71.48;96110.69;10435549;28;2052;-83
2021/09/03 09:22:30;;;;;;;;;;;18.90;99.90;;;17.91;71.05;96100.25;10436796;28;3310;-83
2021/09/03 09:27:33;;;;;;;;;;;18.90;99.90;;;18.37;70.24;96107.97;10430936;28;2353;-82
2021/09/03 09:32:36;;;;;;;;;;;19.00;99.90;;;17.80;72.95;96099.72;10431621;28;2022;-80
2021/09/03 09:37:39;;;;;;;;;;;18.90;99.90;;;18.40;71.57;96095.69;10423496;28;2085;-80
2021/09/03 09:42:42;;;;;;;;;;;19.00;99.90;;;18.18;69.86;96094.63;10432167;28;1966;-81
2021/09/03 09:47:45;;;;;;;;;;;19.30;99.90;;;18.19;70.06;96090.78;10418983;28;2042;-82
2021/09/03 09:52:48;;;;;;;;;;;19.20;99.90;;;18.37;69.76;96081.56;10407259;28;2401;-82
2021/09/03 09:57:51;;;;;;;;;;;19.30;99.90;;;18.51;70.43;96081.47;10411707;28;1817;-81
2021/09/03 10:02:54;;;;;;;;;;;19.30;99.90;;;19.00;67.09;96074.03;10417477;28;1989;-82
2021/09/03 10:07:57;;;;;;;;;;;19.60;99.90;;;19.42;66.55;96072.41;10412372;28;2077;-81
2021/09/03 10:13:00;;;;;;;;;;;20.00;99.90;;;19.07;67.25;96077.06;10401994;28;2072;-81
2021/09/03 10:18:03;;;;;;;;;;;20.00;99.90;;;19.14;68.18;96062.97;10409799;28;2254;-84
2021/09/03 10:23:06;;;;;;;;;;;20.00;99.90;;;19.09;67.30;96065.88;10405780;28;2081;-80
2021/09/03 10:28:09;;;;;;;;;;;19.90;99.90;;;19.57;66.12;96059.38;10405538;28;2100;-81
2021/09/03 10:33:12;;;;;;;;;;;20.20;99.90;;;19.15;65.82;96062.66;10402318;28;2118;-81
2021/09/03 10:38:15;;;;;;;;;;;20.10;99.90;;;19.51;65.34;96056.03;10405458;28;2075;-82
2021/09/03 10:43:18;;;;;;;;;;;20.20;99.90;;;19.35;66.74;96061.19;10404853;28;2053;-83
2021/09/03 10:48:26;;;;;;;;;;;20.30;99.90;;;19.37;65.74;96052.69;10408403;28;2008;-82
2021/09/03 10:53:29;;;;;;;;;;;20.40;99.90;;;19.38;64.51;96055.09;10421861;28;2379;-79
2021/09/03 10:58:32;;;;;;;;;;;20.50;99.90;;;19.59;64.75;96054.44;10422725;28;2191;-83
2021/09/03 11:03:35;;;;;;;;;;;20.40;99.90;;;19.98;64.38;96046.00;10406364;28;2115;-80
2021/09/03 11:08:38;;;;;;;;;;;20.70;99.90;;;19.41;64.69;96048.22;10409590;28;2166;-80
2021/09/03 11:13:41;;;;;;;;;;;20.70;99.90;;;19.63;63.74;96047.22;10406246;28;2339;-81
2021/09/03 11:18:44;;;;;;;;;;;20.60;99.90;;;19.78;64.49;96045.88;10407943;28;1965;-83
2021/09/03 11:23:47;;;;;;;;;;;20.70;99.90;;;19.58;64.09;96041.94;10409359;28;1992;-82
2021/09/03 11:28:50;;;;;;;;;;;20.60;99.90;;;19.78;62.42;96034.97;10423656;28;1997;-84
2021/09/03 11:33:53;;;;;;;;;;;20.70;99.90;;;19.77;63.01;96026.00;10422047;28;2023;-79
2021/09/03 11:38:56;;;;;;;;;;;20.70;99.90;;;20.09;61.69;96029.25;10444261;28;2046;-82
2021/09/03 11:44:00;;;;;;;;;;;20.80;99.90;;;19.91;62.34;96029.34;10398544;28;2029;-83
2021/09/03 11:49:03;;;;;;;;;;;21.00;99.90;;;20.05;61.71;96031.03;10416421;28;1989;-81
2021/09/03 11:54:06;;;;;;;;;;;21.00;99.90;;;20.33;60.56;96032.19;10417781;28;2300;-80
2021/09/03 11:59:09;;;;;;;;;;;21.20;99.90;;;20.48;60.25;96025.38;10412047;28;1883;-79
2021/09/03 12:04:13;;;;;;;;;;;21.30;99.90;;;20.47;60.52;96029.22;10423749;28;3258;-82
2021/09/03 12:09:16;;;;;;;;;;;21.50;99.90;;;20.28;60.05;96028.81;10406380;28;2112;-84
2021/09/03 12:14:20;;;;;;;;;;;21.40;99.90;;;20.31;60.02;96025.44;10428666;28;1812;-84
2021/09/03 12:19:23;;;;;;;;;;;21.30;99.90;;;20.46;59.27;96003.84;10418246;28;2078;-80
2021/09/03 12:24:26;;;;;;;;;;;21.40;99.90;;;20.73;59.57;96002.53;10412934;28;2114;-81
2021/09/03 12:29:29;;;;;;;;;;;21.50;99.90;;;20.90;58.43;96001.63;10425216;28;1640;-82
2021/09/03 12:34:33;;;;;;;;;;;21.80;99.90;;;21.24;58.13;95986.03;10420023;28;2104;-82
2021/09/03 12:39:36;;;;;;;;;;;22.00;99.90;;;21.24;57.81;95986.81;10404372;28;1975;-80
2021/09/03 12:44:39;;;;;;;;;;;22.10;99.90;;;21.12;58.16;95977.78;10413776;28;2108;-82
2021/09/03 12:49:42;;;;;;;;;;;22.20;99.90;;;21.23;56.93;95976.22;10418560;28;2104;-82
2021/09/03 12:54:49;;;;;;;;;;;22.20;99.90;;;21.29;56.22;95972.97;10430840;28;2044;-82
2021/09/03 12:59:52;;;;;;;;;;;22.20;99.90;;;21.34;54.11;95963.78;10430759;28;2070;-82
2021/09/03 13:04:55;;;;;;;;;;;22.20;99.90;;;21.66;54.76;95964.88;10412082;28;2044;-84
2021/09/03 13:09:58;;;;;;;;;;;22.40;99.90;;;21.72;54.99;95957.25;10406892;28;1924;-83
2021/09/03 13:15:01;;;;;;;;;;;22.50;99.90;;;21.58;55.14;95952.09;10416171;28;2109;-88
2021/09/03 13:20:05;;;;;;;;;;;22.60;99.90;;;21.38;55.64;95953.78;10425990;28;2128;-81
2021/09/03 13:25:08;;;;;;;;;;;22.50;99.90;;;21.69;54.54;95928.59;10427053;28;2006;-83
2021/09/03 13:30:11;;;;;;;;;;;22.40;99.90;;;21.46;54.20;95928.25;10418931;28;1931;-84
2021/09/03 13:35:18;;;;;;;;;;;22.40;99.90;;;21.79;52.96;95921.91;10434620;28;2167;-81
2021/09/03 13:40:24;;;;;;;;;;;22.50;99.90;;;21.50;54.24;95928.34;10438266;28;1931;-82
2021/09/03 13:45:27;;;;;;;;;;;22.50;99.90;;;21.64;54.75;95925.31;10427506;28;1975;-83
2021/09/03 13:50:30;;;;;;;;;;;22.50;99.90;;;21.82;53.65;95918.47;10429344;28;2188;-85
2021/09/03 13:55:35;;;;;;;;;;;22.60;99.90;;;21.79;52.96;95910.94;10419148;28;1713;-84
2021/09/03 14:00:45;;;;;;;;;;;22.70;99.90;;;21.83;53.16;95912.69;10412202;28;2140;-83
2021/09/03 14:06:25;;;;;;;;;;;22.70;99.90;;;21.64;53.64;95906.97;10404757;28;1974;-84
2021/09/03 14:11:28;;;;;;;;;;;22.70;99.90;;;21.65;52.48;95896.81;10418477;28;2069;-84
2021/09/03 14:16:31;;;;;;;;;;;22.60;99.90;;;21.57;52.70;95893.06;10405979;28;2085;-83
2021/09/03 14:21:34;;;;;;;;;;;22.50;99.90;;;21.45;52.76;95882.13;10407478;28;1977;-83
2021/09/03 14:26:37;;;;;;;;;;;22.40;99.90;;;21.53;51.63;95884.72;10416187;28;2044;-84
2021/09/03 14:31:40;;;;;;;;;;;22.40;99.90;;;21.68;51.75;95880.50;10428465;28;2163;-84
2021/09/03 14:36:44;;;;;;;;;;;22.50;99.90;;;21.56;52.00;95878.56;10428598;28;1763;-81
2021/09/03 14:41:47;;;;;;;;;;;22.60;99.90;;;21.61;52.35;95876.75;10450846;28;2007;-83
2021/09/03 14:46:50;;;;;;;;;;;22.50;99.90;;;21.64;52.29;95874.16;10436245;28;2030;-82
2021/09/03 14:51:53;;;;;;;;;;;22.50;99.90;;;21.58;50.66;95856.38;10422709;28;2051;-84
2021/09/03 14:56:59;;;;;;;;;;;22.50;99.90;;;21.84;50.79;95861.47;10424327;28;2069;-83
2021/09/03 15:02:02;;;;;;;;;;;22.60;99.90;;;21.55;51.43;95859.75;10421078;28;1944;-80
2021/09/03 15:07:05;;;;;;;;;;;22.50;99.90;;;21.55;52.29;95857.81;10418247;28;1760;-82
2021/09/03 15:12:10;;;;;;;;;;;22.50;99.90;;;21.56;51.82;95855.88;10416455;28;2146;-82
2021/09/03 15:17:13;;;;;;;;;;;22.40;99.90;;;21.46;52.28;95856.34;10417376;28;1785;-82
2021/09/03 15:22:16;;;;;;;;;;;22.40;99.90;;;21.37;52.16;95848.25;10411122;28;1959;-82
2021/09/03 15:27:19;;;;;;;;;;;22.30;99.90;;;21.28;51.58;95844.81;10426226;28;2191;-81
2021/09/03 15:32:22;;;;;;;;;;;22.20;99.90;;;21.18;51.87;95842.50;10426264;28;2081;-83
2021/09/03 15:37:25;;;;;;;;;;;22.20;99.90;;;21.15;51.50;95835.00;10411706;28;1955;-82
2021/09/03 15:42:28;;;;;;;;;;;22.10;99.90;;;21.02;50.70;95837.69;10409356;28;2175;-81
2021/09/03 15:47:31;;;;;;;;;;;22.10;99.90;;;20.86;51.17;95830.47;10412789;28;1995;-82
2021/09/03 15:52:34;;;;;;;;;;;21.90;99.90;;;20.82;50.87;95827.66;10422970;28;1707;-82
2021/09/03 15:57:37;;;;;;;;;;;21.80;99.90;;;20.71;50.53;95827.25;10412297;28;2037;-83
2021/09/03 16:02:40;;;;;;;;;;;21.70;99.90;;;20.70;49.96;95824.88;10405490;28;2070;-84
2021/09/03 16:07:43;;;;;;;;;;;21.70;99.90;;;20.50;50.77;95824.59;10404267;28;2123;-82
2021/09/03 16:12:46;;;;;;;;;;;21.60;99.90;;;20.51;50.55;95823.44;10424593;28;2125;-82
2021/09/03 16:17:49;;;;;;;;;;;21.50;99.90;;;20.41;49.08;95829.28;10424667;28;2077;-84
2021/09/03 16:22:52;;;;;;;;;;;21.40;99.90;;;20.38;49.51;95818.25;10410175;28;2081;-81
2021/09/03 16:27:55;;;;;;;;;;;21.30;99.90;;;20.28;49.82;95811.25;10423177;28;1373;-81
2021/09/03 16:32:58;;;;;;;;;;;21.20;99.90;;;20.19;49.57;95805.88;10404534;28;2260;-83
2021/09/03 16:38:01;;;;;;;;;;;21.20;99.90;;;20.09;49.04;95810.94;10420981;28;2092;-81
2021/09/03 16:43:04;;;;;;;;;;;21.10;99.90;;;20.00;49.72;95807.47;10399922;28;1887;-83
2021/09/03 16:48:07;;;;;;;;;;;21.00;99.90;;;19.93;49.38;95797.91;10419594;28;1901;-82
2021/09/03 16:53:10;;;;;;;;;;;20.90;99.90;;;19.86;49.53;95799.56;10405670;28;2041;-83
2021/09/03 16:58:13;;;;;;;;;;;20.80;99.90;;;19.76;49.23;95802.69;10402231;28;2003;-82
2021/09/03 17:03:16;;;;;;;;;;;20.70;99.90;;;19.63;48.68;95801.81;10398883;28;1985;-82
2021/09/03 17:08:19;;;;;;;;;;;20.60;99.90;;;19.43;48.87;95793.22;10405433;28;1681;-82
2021/09/03 17:13:22;;;;;;;;;;;20.50;99.90;;;19.18;50.01;95794.16;10417011;28;2105;-82
2021/09/03 17:18:25;;;;;;;;;;;20.30;99.90;;;19.20;49.70;95788.38;10411271;28;1947;-83
2021/09/03 17:23:28;;;;;;;;;;;20.20;99.90;;;19.10;50.25;95792.28;10409163;28;2136;-82
2021/09/03 17:28:31;;;;;;;;;;;20.10;99.90;;;19.00;50.90;95789.91;10428328;28;1997;-82
2021/09/03 17:33:34;;;;;;;;;;;20.00;99.90;;;18.80;51.70;95789.50;10436729;28;1905;-83
2021/09/03 17:38:37;;;;;;;;;;;19.90;99.90;;;18.60;52.83;95787.44;10443566;28;1905;-81
2021/09/03 17:43:41;;;;;;;;;;;19.70;99.90;;;18.34;54.10;95798.38;10422312;28;1936;-84
2021/09/03 17:48:44;;;;;;;;;;;19.60;99.90;;;18.23;54.91;95792.47;10415378;28;2125;-82
2021/09/03 17:53:47;;;;;;;;;;;19.40;99.90;;;18.02;56.41;95800.50;10419793;28;2227;-82
2021/09/03 17:58:50;;;;;;;;;;;19.20;99.90;;;17.73;57.60;95794.88;10406242;28;2089;-82
2021/09/03 18:03:59;;;;;;;;;;;19.00;99.90;;;17.72;58.48;95799.50;10406286;28;1964;-84
2021/09/03 18:09:02;;;;;;;;;;;18.80;99.90;;;17.63;59.05;95801.41;10409225;28;1837;-81
2021/09/03 18:14:05;;;;;;;;;;;18.70;99.90;;;17.38;60.49;95802.94;10425614;28;1984;-82
2021/09/03 18:19:08;;;;;;;;;;;18.60;99.90;;;17.29;62.12;95808.34;10437722;28;2023;-80
2021/09/03 18:24:11;;;;;;;;;;;18.50;99.90;;;17.13;62.95;95814.53;10439149;28;2085;-80
2021/09/03 18:29:14;;;;;;;;;;;18.30;99.90;;;17.06;64.55;95814.19;10410376;28;2120;-80
2021/09/03 18:34:16;;;;;;;;;;;18.20;99.90;;;16.98;65.94;95823.88;10417772;28;2041;-83
2021/09/03 18:39:19;;;;;;;;;;;18.10;99.90;;;16.96;67.34;95820.69;10420838;28;2049;-81
2021/09/03 18:44:22;;;;;;;;;;;18.00;99.90;;;16.84;68.06;95812.31;10423248;28;2045;-81
2021/09/03 18:49:25;;;;;;;;;;;18.00;99.90;;;16.70;69.05;95820.56;10419912;28;2022;-83
2021/09/03 18:54:28;;;;;;;;;;;17.80;99.90;;;16.45;69.47;95821.97;10411781;28;1899;-83
2021/09/03 18:59:31;;;;;;;;;;;17.70;99.90;;;16.56;70.17;95827.94;10414087;28;1861;-82
2021/09/03 19:04:34;;;;;;;;;;;17.60;99.90;;;16.55;70.34;95831.78;10414049;28;2061;-83
2021/09/03 19:09:41;;;;;;;;;;;17.60;99.90;;;16.48;71.26;95832.22;10409933;28;2059;-83
2021/09/03 19:14:50;;;;;;;;;;;17.50;99.90;;;16.49;72.13;95828.41;10422589;28;2057;-82
2021/09/03 19:19:53;;;;;;;;;;;17.50;99.90;;;16.46;72.21;95829.78;10446831;28;1930;-86
2021/09/03 19:24:56;;;;;;;;;;;17.40;99.90;;;16.24;72.90;95823.59;10441409;28;1958;-85
2021/09/03 19:29:59;;;;;;;;;;;17.30;99.90;;;16.21;73.36;95833.94;10440616;28;1804;-84
2021/09/03 19:35:03;;;;;;;;;;;17.30;99.90;;;16.26;73.40;95833.00;10443128;28;2222;-81
2021/09/03 19:40:09;;;;;;;;;;;17.30;99.90;;;16.40;73.80;95830.22;10439797;28;1988;-85
2021/09/03 19:45:12;;;;;;;;;;;17.30;99.90;;;16.39;74.42;95844.91;10444829;28;2089;-85
2021/09/03 19:50:15;;;;;;;;;;;17.40;99.90;;;16.31;74.62;95838.31;10456432;28;2100;-83
2021/09/03 19:55:18;;;;;;;;;;;17.40;99.90;;;16.29;74.91;95845.19;10436066;28;2159;-84
2021/09/03 20:00:21;;;;;;;;;;;17.30;99.90;;;16.15;75.64;95840.56;10425021;28;2109;-82
2021/09/03 20:05:24;;;;;;;;;;;17.20;99.90;;;16.13;75.71;95836.59;10412735;28;2002;-79
2021/09/03 20:10:27;;;;;;;;;;;17.20;99.90;;;16.10;77.45;95848.06;10423707;28;2128;-80
2021/09/03 20:15:30;;;;;;;;;;;17.10;99.90;;;16.00;77.17;95843.66;10415018;28;2046;-83
2021/09/03 20:20:33;;;;;;;;;;;17.10;99.90;;;16.11;76.17;95847.75;10414008;28;2074;-83
2021/09/03 20:25:44;;;;;;;;;;;17.10;99.90;;;16.10;77.38;95838.00;10416483;28;2228;-81
2021/09/03 20:30:46;;;;;;;;;;;17.10;99.90;;;16.05;77.06;95840.03;10401849;28;2212;-80
2021/09/03 20:35:50;;;;;;;;;;;17.10;99.90;;;16.01;76.92;95833.59;10423909;28;1939;-82
2021/09/03 20:40:52;;;;;;;;;;;17.00;99.90;;;16.01;77.61;95834.41;10439375;28;1905;-83
2021/09/03 20:45:56;;;;;;;;;;;17.00;99.90;;;15.94;77.35;95824.00;10423471;28;2102;-79
2021/09/03 20:50:59;;;;;;;;;;;17.00;99.90;;;15.90;77.67;95825.72;10432432;28;2158;-83
2021/09/03 20:56:02;;;;;;;;;;;16.90;99.90;;;15.84;78.62;95823.41;10456997;28;1834;-85
2021/09/03 21:01:05;;;;;;;;;;;16.90;99.90;;;15.92;79.02;95826.22;10443475;28;2049;-82
2021/09/03 21:06:08;;;;;;;;;;;16.90;99.90;;;15.96;78.77;95839.94;10463408;28;1962;-83
2021/09/03 21:11:11;;;;;;;;;;;16.90;99.90;;;15.89;79.25;95832.22;10444200;28;1761;-84
2021/09/03 21:16:14;;;;;;;;;;;16.90;99.90;;;15.84;79.37;95834.25;10448128;28;1769;-86
2021/09/03 21:21:18;;;;;;;;;;;16.90;99.90;;;15.36;80.85;95838.22;10448888;28;1737;-85
2021/09/03 21:26:22;;;;;;;;;;;16.70;99.90;;;14.76;83.63;95846.44;10445075;28;2216;-84
2021/09/03 21:31:25;;;;;;;;;;;16.20;99.90;;;14.31;86.47;95848.78;10450803;28;1812;-86
2021/09/03 21:36:28;;;;;;;;;;;15.80;99.90;;;13.97;89.89;95850.91;10437167;28;2029;-80
2021/09/03 21:41:31;;;;;;;;;;;15.40;99.90;;;13.77;92.13;95849.31;10437615;28;2130;-83
2021/09/03 21:46:34;;;;;;;;;;;15.10;99.90;;;13.55;93.60;95857.16;10423687;28;2057;-80
2021/09/03 21:51:38;;;;;;;;;;;14.90;99.90;;;13.34;96.38;95857.44;10420073;28;2100;-82
2021/09/03 21:56:40;;;;;;;;;;;14.70;99.90;;;13.21;98.79;95864.34;10408214;28;2125;-81
2021/09/03 22:01:43;;;;;;;;;;;14.60;99.90;;;13.12;99.41;95859.84;10420836;28;2081;-79
2021/09/03 22:06:46;;;;;;;;;;;14.40;99.90;;;13.00;99.84;95854.84;10419763;28;2276;-79
2021/09/03 22:11:49;;;;;;;;;;;14.30;99.90;;;12.95;100.00;95855.69;10402781;28;2117;-83
2021/09/03 22:16:52;;;;;;;;;;;14.20;99.90;;;12.84;100.00;95864.97;10406580;28;2273;-82
2021/09/03 22:21:55;;;;;;;;;;;14.10;99.90;;;12.76;100.00;95862.91;10401878;28;2046;-82
2021/09/03 22:26:58;;;;;;;;;;;14.00;99.90;;;12.72;100.00;95856.47;10413538;28;2097;-84
2021/09/03 22:32:01;;;;;;;;;;;13.90;99.90;;;12.71;100.00;95860.25;10432624;28;2251;-81
2021/09/03 22:37:04;;;;;;;;;;;13.90;99.90;;;12.60;100.00;95853.38;10423631;28;2053;-81
2021/09/03 22:42:07;;;;;;;;;;;13.80;99.90;;;12.50;100.00;95854.25;10425405;28;2136;-82
2021/09/03 22:47:10;;;;;;;;;;;13.80;99.90;;;12.46;100.00;95858.59;10404383;28;2060;-82
2021/09/03 22:52:13;;;;;;;;;;;13.70;99.90;;;12.42;100.00;95852.19;10402680;28;2110;-82
2021/09/03 22:57:16;;;;;;;;;;;13.60;99.90;;;12.36;100.00;95848.72;10402941;28;2068;-80
2021/09/03 23:02:19;;;;;;;;;;;13.60;99.90;;;12.28;100.00;95846.63;10405081;28;2100;-82
2021/09/03 23:07:22;;;;;;;;;;;13.50;99.90;;;12.29;100.00;95856.31;10405250;28;2213;-83
2021/09/03 23:12:25;;;;;;;;;;;13.50;99.90;;;12.24;100.00;95853.66;10405576;28;2067;-83